Time;durP1;ratioP1;P1;durP2;ratioP2;P2;SDS_P1;SDS_P2;PMS_P1;PMS_P2;Temp;Humidity;BMP_temperature;BMP_pressure;BME280_temperature;BME280_humidity;BME280_pressure;Samples;Min_cycle;Max_cycle;Signal;HPM_P1;HPM_P2
2021/04/27 00:00:11;;;;;;;0.80;0.80;;;4.10;99.90;;;;;;4992071;28;20552;-74
2021/04/27 00:02:37;;;;;;;0.25;0.25;;;4.10;99.90;;;;;;4992084;28;20156;-74
2021/04/27 00:05:05;;;;;;;0.60;0.60;;;4.00;99.90;;;;;;4992042;28;20178;-74
2021/04/27 00:07:31;;;;;;;0.65;0.65;;;3.90;99.90;;;;;;4991914;28;20171;-74
2021/04/27 00:09:58;;;;;;;0.40;0.40;;;4.00;99.90;;;;;;4991741;28;20166;-74
2021/04/27 00:12:24;;;;;;;0.75;0.75;;;4.00;99.90;;;;;;4991834;28;20183;-74
2021/04/27 00:14:50;;;;;;;0.47;0.47;;;4.00;99.90;;;;;;4990500;28;20168;-74
2021/04/27 00:17:16;;;;;;;0.30;0.30;;;3.90;99.90;;;;;;4991789;28;20514;-74
2021/04/27 00:19:42;;;;;;;2.08;1.52;;;4.00;99.90;;;;;;4993299;28;20214;-75
2021/04/27 00:22:08;;;;;;;0.57;0.57;;;3.80;99.90;;;;;;4993299;28;20246;-74
2021/04/27 00:24:34;;;;;;;1.85;1.00;;;3.70;99.90;;;;;;4990038;28;20223;-74
2021/04/27 00:27:01;;;;;;;0.45;0.45;;;3.60;99.90;;;;;;4991522;28;20210;-73
2021/04/27 00:29:28;;;;;;;0.35;0.35;;;3.70;99.90;;;;;;4991528;28;20223;-74
2021/04/27 00:31:55;;;;;;;0.80;0.80;;;3.70;99.90;;;;;;4990040;28;20199;-74
2021/04/27 00:34:21;;;;;;;0.98;0.98;;;3.70;99.90;;;;;;4991410;28;20170;-74
2021/04/27 00:36:48;;;;;;;0.73;0.65;;;3.50;99.90;;;;;;4991385;28;20174;-74
2021/04/27 00:39:20;;;;;;;0.98;0.95;;;3.40;99.90;;;;;;4991406;28;20183;-71
2021/04/27 00:41:47;;;;;;;1.15;1.05;;;3.30;99.90;;;;;;4989662;28;20199;-75
2021/04/27 00:44:13;;;;;;;0.50;0.50;;;3.20;99.90;;;;;;4991204;28;20160;-75
2021/04/27 00:46:39;;;;;;;0.50;0.50;;;3.20;99.90;;;;;;4991137;28;20251;-75
2021/04/27 00:49:06;;;;;;;0.10;0.10;;;3.30;99.90;;;;;;4990893;28;20156;-75
2021/04/27 00:51:33;;;;;;;0.20;0.20;;;3.10;99.90;;;;;;4989629;28;20211;-75
2021/04/27 00:54:02;;;;;;;1.10;1.00;;;3.00;99.90;;;;;;4986275;28;20244;-75
2021/04/27 00:56:29;;;;;;;0.10;0.10;;;2.90;99.90;;;;;;4991144;28;20168;-74
2021/04/27 00:58:55;;;;;;;0.20;0.20;;;2.90;99.90;;;;;;4989346;28;20203;-74
2021/04/27 01:01:21;;;;;;;1.58;1.50;;;2.80;99.90;;;;;;4989503;28;20619;-74
2021/04/27 01:03:47;;;;;;;2.38;1.10;;;2.90;99.90;;;;;;4990939;28;20159;-72
2021/04/27 01:06:13;;;;;;;0.40;0.40;;;3.10;99.90;;;;;;4989503;28;20618;-75
2021/04/27 01:08:46;;;;;;;0.57;0.57;;;3.20;99.90;;;;;;4990739;28;20186;-75
2021/04/27 01:11:36;;;;;;;3.63;2.72;;;3.20;99.90;;;;;;4989743;28;20207;-75
2021/04/27 01:14:10;;;;;;;0.73;0.73;;;3.20;99.90;;;;;;4990587;28;20191;-73
2021/04/27 01:16:53;;;;;;;1.27;1.17;;;3.20;99.90;;;;;;4990620;28;20168;-73
2021/04/27 01:19:31;;;;;;;1.45;1.20;;;3.20;99.90;;;;;;4990522;28;20191;-74
2021/04/27 01:21:57;;;;;;;1.00;1.00;;;3.20;99.90;;;;;;4990392;28;20222;-75
2021/04/27 01:24:35;;;;;;;2.25;2.05;;;3.20;99.90;;;;;;4989132;28;20238;-73
2021/04/27 01:27:03;;;;;;;0.50;0.50;;;3.10;99.90;;;;;;4990391;28;20155;-74
2021/04/27 01:29:33;;;;;;;1.77;1.67;;;3.10;99.90;;;;;;4990468;28;20321;-72
2021/04/27 01:32:01;;;;;;;0.52;0.50;;;3.00;99.90;;;;;;4990347;28;20195;-72
2021/04/27 01:34:40;;;;;;;0.75;0.75;;;3.00;99.90;;;;;;4988901;28;20186;-72
2021/04/27 01:37:10;;;;;;;2.75;1.08;;;3.00;99.90;;;;;;4989738;28;20163;-73
2021/04/27 01:39:37;;;;;;;2.45;2.25;;;3.10;99.90;;;;;;4990105;28;20281;-73
2021/04/27 01:42:06;;;;;;;0.60;0.60;;;3.00;99.90;;;;;;4990003;28;20187;-73
2021/04/27 01:44:35;;;;;;;1.02;1.00;;;3.20;99.90;;;;;;4990141;28;20164;-73
2021/04/27 01:47:02;;;;;;;0.55;0.55;;;3.20;99.90;;;;;;4990102;28;20223;-74
2021/04/27 01:49:28;;;;;;;0.82;0.70;;;3.30;99.90;;;;;;4989847;28;20190;-71
2021/04/27 01:51:55;;;;;;;1.27;1.20;;;3.20;99.90;;;;;;4989888;28;20195;-72
2021/04/27 01:54:27;;;;;;;0.52;0.52;;;3.20;99.90;;;;;;4989939;28;20168;-73
2021/04/27 01:56:54;;;;;;;2.65;0.95;;;3.10;99.90;;;;;;4988559;28;20172;-73
2021/04/27 01:59:21;;;;;;;0.30;0.30;;;3.00;99.90;;;;;;4988371;28;20199;-72
2021/04/27 02:01:47;;;;;;;0.20;0.20;;;2.90;99.90;;;;;;4989693;28;20758;-73
2021/04/27 02:04:24;;;;;;;1.65;1.55;;;2.80;99.90;;;;;;4989617;28;20219;-72
2021/04/27 02:06:50;;;;;;;1.10;1.10;;;2.80;99.90;;;;;;4989790;28;20160;-72
2021/04/27 02:09:18;;;;;;;0.32;0.32;;;2.70;99.90;;;;;;4989783;28;20185;-73
2021/04/27 02:11:50;;;;;;;0.50;0.50;;;2.80;99.90;;;;;;4989623;28;20230;-73
2021/04/27 02:14:17;;;;;;;0.20;0.20;;;2.90;99.90;;;;;;4989541;28;20171;-73
2021/04/27 02:16:51;;;;;;;2.08;1.98;;;3.00;99.90;;;;;;4989689;28;20164;-73
2021/04/27 02:19:20;;;;;;;1.50;1.50;;;3.00;99.90;;;;;;4988048;28;20199;-74
2021/04/27 02:21:47;;;;;;;1.00;1.00;;;2.80;99.90;;;;;;4989319;28;20237;-73
2021/04/27 02:24:14;;;;;;;0.20;0.20;;;2.60;99.90;;;;;;4989410;28;20182;-73
2021/04/27 02:26:41;;;;;;;1.10;1.10;;;2.40;99.90;;;;;;4989372;28;20160;-73
2021/04/27 02:29:08;;;;;;;0.80;0.40;;;2.50;99.90;;;;;;4989287;28;20160;-73
2021/04/27 02:31:35;;;;;;;0.95;0.95;;;2.40;99.90;;;;;;4987913;28;20203;-72
2021/04/27 02:34:04;;;;;;;0.40;0.40;;;2.30;99.90;;;;;;4987946;28;20172;-72
2021/04/27 02:36:30;;;;;;;0.28;0.28;;;2.10;99.90;;;;;;4989355;28;20163;-74
2021/04/27 02:38:57;;;;;;;0.70;0.70;;;2.10;99.90;;;;;;4987800;28;20207;-73
2021/04/27 02:41:28;;;;;;;1.05;1.05;;;2.10;99.90;;;;;;4988936;28;20195;-73
2021/04/27 02:43:54;;;;;;;0.55;0.52;;;2.20;99.90;;;;;;4989234;28;20255;-74
2021/04/27 02:46:20;;;;;;;3.97;2.00;;;2.20;99.90;;;;;;4989023;28;20160;-73
2021/04/27 02:48:47;;;;;;;2.10;2.00;;;2.20;99.90;;;;;;4988593;28;20163;-73
2021/04/27 02:51:13;;;;;;;1.13;1.05;;;2.30;99.90;;;;;;4989009;28;20198;-74
2021/04/27 02:53:39;;;;;;;1.40;0.68;;;2.40;99.90;;;;;;4989044;28;20172;-75
2021/04/27 02:56:05;;;;;;;0.10;0.10;;;2.40;99.90;;;;;;4987744;28;20241;-73
2021/04/27 02:58:31;;;;;;;0.82;0.82;;;2.30;99.90;;;;;;4988630;28;20198;-73
2021/04/27 03:00:57;;;;;;;0.60;0.60;;;2.20;99.90;;;;;;4988856;28;20211;-74
2021/04/27 03:03:23;;;;;;;2.92;2.08;;;2.00;99.90;;;;;;4988834;28;20163;-73
2021/04/27 03:05:48;;;;;;;2.00;1.40;;;2.10;99.90;;;;;;4988887;28;20163;-73
2021/04/27 03:08:15;;;;;;;0.52;0.52;;;2.20;99.90;;;;;;4989066;28;20627;-74
2021/04/27 03:10:41;;;;;;;0.98;0.98;;;2.30;99.90;;;;;;4988843;28;20198;-74
2021/04/27 03:13:08;;;;;;;1.27;1.20;;;2.40;99.90;;;;;;4988736;28;20163;-73
2021/04/27 03:15:34;;;;;;;0.30;0.30;;;2.50;99.90;;;;;;4988727;28;20536;-73
2021/04/27 03:18:00;;;;;;;0.93;0.88;;;2.50;99.90;;;;;;4988526;28;20184;-73
2021/04/27 03:20:26;;;;;;;2.10;2.00;;;2.50;99.90;;;;;;4988370;28;20539;-74
2021/04/27 03:22:52;;;;;;;0.93;0.93;;;2.60;99.90;;;;;;4988560;28;20179;-73
2021/04/27 03:25:18;;;;;;;0.50;0.50;;;2.70;99.90;;;;;;4987530;28;20191;-74
2021/04/27 03:27:44;;;;;;;1.58;1.50;;;2.70;99.90;;;;;;4987336;28;20266;-73
2021/04/27 03:30:12;;;;;;;1.70;1.65;;;2.70;99.90;;;;;;4987026;28;20235;-73
2021/04/27 03:32:39;;;;;;;0.47;0.47;;;2.70;99.90;;;;;;4988686;28;20159;-74
2021/04/27 03:35:08;;;;;;;1.35;1.25;;;2.60;99.90;;;;;;4988725;28;20722;-73
2021/04/27 03:37:34;;;;;;;8.70;1.70;;;2.60;99.90;;;;;;4988791;28;20274;-73
2021/04/27 03:40:00;;;;;;;0.70;0.70;;;2.60;99.90;;;;;;4986965;28;20251;-74
2021/04/27 03:42:25;;;;;;;0.57;0.57;;;2.60;99.90;;;;;;4988471;28;20162;-74
2021/04/27 03:44:52;;;;;;;0.90;0.90;;;2.60;99.90;;;;;;4987225;28;20302;-72
2021/04/27 03:47:18;;;;;;;0.20;0.20;;;2.70;99.90;;;;;;4986903;28;20186;-74
2021/04/27 03:49:44;;;;;;;1.30;1.20;;;2.70;99.90;;;;;;4988425;28;20230;-73
2021/04/27 03:52:09;;;;;;;0.20;0.20;;;2.80;99.90;;;;;;4988328;28;20192;-73
2021/04/27 03:54:35;;;;;;;0.55;0.55;;;2.90;99.90;;;;;;4988239;28;20255;-74
2021/04/27 03:57:02;;;;;;;0.90;0.90;;;2.90;99.90;;;;;;4986700;28;20171;-74
2021/04/27 03:59:29;;;;;;;0.20;0.20;;;2.90;99.90;;;;;;4988941;28;20206;-73
2021/04/27 04:01:55;;;;;;;1.98;1.85;;;3.00;99.90;;;;;;4991978;28;20222;-76
2021/04/27 04:04:21;;;;;;;1.60;1.50;;;3.00;99.90;;;;;;4991923;28;20163;-74
2021/04/27 04:06:47;;;;;;;0.65;0.65;;;3.10;99.90;;;;;;4990381;28;20187;-73
2021/04/27 04:09:13;;;;;;;1.95;1.85;;;3.00;99.90;;;;;;4991695;28;20160;-74
2021/04/27 04:11:39;;;;;;;0.82;0.82;;;3.20;99.90;;;;;;4991751;28;20199;-74
2021/04/27 04:14:05;;;;;;;0.93;0.93;;;3.30;99.90;;;;;;4990304;28;20182;-74
2021/04/27 04:16:31;;;;;;;1.05;1.05;;;3.30;99.90;;;;;;4991698;28;20223;-76
2021/04/27 04:18:57;;;;;;;3.13;2.85;;;3.30;99.90;;;;;;4991447;28;20199;-74
2021/04/27 04:21:25;;;;;;;0.13;0.13;;;3.40;99.90;;;;;;4991144;28;20222;-73
2021/04/27 04:23:52;;;;;;;0.47;0.47;;;3.50;99.90;;;;;;4991584;28;20155;-74
2021/04/27 04:26:19;;;;;;;1.02;1.02;;;3.50;99.90;;;;;;4991566;28;20194;-74
2021/04/27 04:28:46;;;;;;;0.80;0.80;;;3.60;99.90;;;;;;4991198;28;20170;-73
2021/04/27 04:31:12;;;;;;;0.38;0.38;;;3.80;99.90;;;;;;4989811;28;20214;-73
2021/04/27 04:33:38;;;;;;;2.33;2.17;;;3.80;99.90;;;;;;4991778;28;20234;-73
2021/04/27 04:36:05;;;;;;;1.95;1.67;;;3.80;99.90;;;;;;4991277;28;20167;-72
2021/04/27 04:38:31;;;;;;;0.90;0.90;;;3.90;99.90;;;;;;4991027;28;20187;-73
2021/04/27 04:40:58;;;;;;;0.20;0.20;;;4.00;99.90;;;;;;4989756;28;20262;-73
2021/04/27 04:43:25;;;;;;;1.55;1.02;;;4.10;99.90;;;;;;4991251;28;20215;-74
2021/04/27 04:45:51;;;;;;;0.30;0.30;;;4.30;99.90;;;;;;4991096;28;20155;-74
2021/04/27 04:48:17;;;;;;;2.95;2.75;;;4.40;99.90;;;;;;4990923;28;20227;-73
2021/04/27 04:50:43;;;;;;;2.03;1.92;;;4.50;99.90;;;;;;4986274;28;20564;-74
2021/04/27 04:53:09;;;;;;;1.80;1.70;;;4.60;99.90;;;;;;4971640;28;20168;-74
2021/04/27 04:55:36;;;;;;;0.57;0.57;;;4.80;99.90;;;;;;4986096;28;20199;-72
2021/04/27 04:58:05;;;;;;;0.60;0.60;;;4.90;99.90;;;;;;4989265;28;20206;-73
2021/04/27 05:00:31;;;;;;;0.95;0.95;;;5.00;99.90;;;;;;4989501;28;20290;-73
2021/04/27 05:02:57;;;;;;;1.90;1.80;;;4.90;99.90;;;;;;4990745;28;20156;-74
2021/04/27 05:05:24;;;;;;;1.13;1.00;;;4.90;99.90;;;;;;4990465;28;20163;-73
2021/04/27 05:07:59;;;;;;;1.92;1.83;;;4.80;99.90;;;;;;4990466;28;20163;-73
2021/04/27 05:10:25;;;;;;;2.05;1.92;;;4.70;99.90;;;;;;4989869;28;20198;-73
2021/04/27 05:12:51;;;;;;;0.95;0.95;;;4.70;99.90;;;;;;4990290;28;20199;-74
2021/04/27 05:15:17;;;;;;;1.02;1.02;;;4.70;99.90;;;;;;4990581;28;20198;-74
2021/04/27 05:17:44;;;;;;;2.03;1.42;;;4.60;99.90;;;;;;4988453;28;20259;-74
2021/04/27 05:20:10;;;;;;;0.63;0.63;;;4.70;99.90;;;;;;4990154;28;20219;-72
2021/04/27 05:22:36;;;;;;;4.03;1.48;;;4.70;99.90;;;;;;4990444;28;20156;-73
2021/04/27 05:25:04;;;;;;;1.17;0.90;;;4.50;99.90;;;;;;4988688;28;20183;-74
2021/04/27 05:27:30;;;;;;;0.80;0.80;;;4.20;99.90;;;;;;4990312;28;20190;-74
2021/04/27 05:29:56;;;;;;;1.48;1.38;;;4.30;99.90;;;;;;4988694;28;20203;-74
2021/04/27 05:32:22;;;;;;;1.70;1.60;;;4.50;99.90;;;;;;4990103;28;20199;-73
2021/04/27 05:34:48;;;;;;;4.85;1.33;;;4.60;99.90;;;;;;4990046;28;20589;-73
2021/04/27 05:37:14;;;;;;;0.47;0.47;;;4.70;99.90;;;;;;4990004;28;20167;-73
2021/04/27 05:39:40;;;;;;;1.45;1.35;;;4.80;99.90;;;;;;4989438;28;20211;-77
2021/04/27 05:42:06;;;;;;;2.22;2.13;;;4.90;99.90;;;;;;4990429;28;20227;-75
2021/04/27 05:44:32;;;;;;;2.10;1.98;;;4.90;99.90;;;;;;4988483;28;20213;-75
2021/04/27 05:46:58;;;;;;;1.23;1.23;;;4.90;99.90;;;;;;4989826;28;20266;-74
2021/04/27 05:49:24;;;;;;;0.40;0.40;;;4.90;99.90;;;;;;4988429;28;20187;-73
2021/04/27 05:51:50;;;;;;;2.10;1.98;;;4.90;99.90;;;;;;4989826;28;20191;-74
2021/04/27 05:54:16;;;;;;;2.05;1.95;;;4.90;99.90;;;;;;4989296;28;20156;-73
2021/04/27 05:56:42;;;;;;;2.15;1.40;;;5.10;99.90;;;;;;4989000;28;20162;-75
2021/04/27 05:59:08;;;;;;;1.48;1.42;;;5.20;99.90;;;;;;4970073;29;20211;-75
2021/04/27 06:01:34;;;;;;;0.40;0.40;;;5.20;99.90;;;;;;4970225;28;20247;-75
2021/04/27 06:04:00;;;;;;;0.90;0.90;;;5.30;99.90;;;;;;4969132;28;20219;-75
2021/04/27 06:06:26;;;;;;;0.30;0.30;;;5.40;99.90;;;;;;4970323;28;20152;-75
2021/04/27 06:08:52;;;;;;;1.23;1.23;;;5.50;99.90;;;;;;4968718;28;20207;-74
2021/04/27 06:11:18;;;;;;;1.85;1.40;;;5.60;99.90;;;;;;4969928;28;20196;-74
2021/04/27 06:13:44;;;;;;;3.35;3.08;;;5.60;99.90;;;;;;4970035;29;20184;-77
2021/04/27 06:16:10;;;;;;;1.02;1.02;;;5.70;99.90;;;;;;4968992;28;20635;-77
2021/04/27 06:18:36;;;;;;;2.53;1.55;;;5.70;99.90;;;;;;4973596;28;20203;-74
2021/04/27 06:21:05;;;;;;;1.25;1.15;;;5.70;99.90;;;;;;4989092;28;20633;-76
2021/04/27 06:23:30;;;;;;;1.50;1.45;;;5.80;99.90;;;;;;4990135;28;20618;-76
2021/04/27 06:25:56;;;;;;;0.70;0.70;;;5.70;99.90;;;;;;4989203;28;20180;-74
2021/04/27 06:28:22;;;;;;;1.17;1.13;;;5.70;99.90;;;;;;4989316;28;20160;-77
2021/04/27 06:30:48;;;;;;;0.95;0.70;;;5.70;99.90;;;;;;4988904;28;20199;-70
2021/04/27 06:33:14;;;;;;;1.25;1.25;;;5.50;99.90;;;;;;4989017;28;20163;-75
2021/04/27 06:35:42;;;;;;;1.27;1.27;;;5.60;99.90;;;;;;4989233;28;20164;-75
2021/04/27 06:38:08;;;;;;;2.00;1.85;;;5.60;99.90;;;;;;4988341;28;20188;-74
2021/04/27 06:40:35;;;;;;;1.98;1.40;;;5.70;99.90;;;;;;4974953;28;20227;-74
2021/04/27 06:43:01;;;;;;;1.23;1.20;;;5.80;99.90;;;;;;4983933;28;20262;-73
2021/04/27 06:45:27;;;;;;;1.00;1.00;;;5.90;99.90;;;;;;4987648;28;20206;-73
2021/04/27 06:47:53;;;;;;;1.52;1.42;;;5.90;99.90;;;;;;4988983;28;20155;-73
2021/04/27 06:50:20;;;;;;;1.05;0.85;;;5.90;99.90;;;;;;4988557;28;20238;-73
2021/04/27 06:52:46;;;;;;;0.98;0.93;;;6.00;99.90;;;;;;4988556;28;20194;-74
2021/04/27 06:55:13;;;;;;;2.58;2.47;;;5.90;99.90;;;;;;4987281;28;20171;-75
2021/04/27 06:57:39;;;;;;;1.88;1.70;;;5.90;99.90;;;;;;4988749;28;20167;-74
2021/04/27 07:00:07;;;;;;;0.93;0.93;;;6.00;99.90;;;;;;4987332;28;20246;-74
2021/04/27 07:02:33;;;;;;;0.30;0.30;;;6.10;99.90;;;;;;4988903;28;20167;-75
2021/04/27 07:04:59;;;;;;;1.08;1.08;;;6.20;99.90;;;;;;4988823;28;20184;-75
2021/04/27 07:07:25;;;;;;;0.98;0.88;;;6.30;99.90;;;;;;4988664;28;20183;-74
2021/04/27 07:09:51;;;;;;;1.25;1.23;;;6.30;99.90;;;;;;4988672;28;20179;-74
2021/04/27 07:12:17;;;;;;;2.03;1.95;;;6.30;99.90;;;;;;4987332;28;20219;-75
2021/04/27 07:14:43;;;;;;;5.38;1.48;;;6.20;99.90;;;;;;4988553;28;20186;-74
2021/04/27 07:17:09;;;;;;;1.33;1.33;;;6.20;99.90;;;;;;4988693;28;20178;-74
2021/04/27 07:19:35;;;;;;;3.35;1.42;;;6.10;99.90;;;;;;4988605;28;20183;-74
2021/04/27 07:22:01;;;;;;;1.92;1.83;;;6.20;99.90;;;;;;4988364;28;20306;-74
2021/04/27 07:24:27;;;;;;;1.77;1.67;;;6.30;99.90;;;;;;4988546;28;20171;-74
2021/04/27 07:26:53;;;;;;;0.35;0.35;;;6.30;99.90;;;;;;4987311;28;20264;-74
2021/04/27 07:29:20;;;;;;;1.33;1.33;;;6.40;99.90;;;;;;4988708;28;20170;-76
2021/04/27 07:31:46;;;;;;;3.92;2.80;;;6.50;99.90;;;;;;4986268;28;20203;-75
2021/04/27 07:34:13;;;;;;;0.40;0.40;;;6.50;99.90;;;;;;4990292;28;20178;-76
2021/04/27 07:36:39;;;;;;;0.90;0.90;;;6.40;99.90;;;;;;4989820;28;20186;-75
2021/04/27 07:39:07;;;;;;;1.30;1.30;;;6.40;99.90;;;;;;4991058;28;20206;-74
2021/04/27 07:41:34;;;;;;;1.27;1.23;;;6.40;99.90;;;;;;4992353;28;20187;-74
2021/04/27 07:44:00;;;;;;;18.83;1.33;;;6.40;99.90;;;;;;4992188;28;20194;-74
2021/04/27 07:46:26;;;;;;;1.17;1.17;;;6.30;99.90;;;;;;4992272;28;20191;-74
2021/04/27 07:48:52;;;;;;;1.30;1.30;;;6.30;99.90;;;;;;4990819;28;20191;-72
2021/04/27 07:51:18;;;;;;;0.50;0.50;;;6.30;99.90;;;;;;4978050;28;20195;-75
2021/04/27 07:53:44;;;;;;;0.55;0.55;;;6.50;99.90;;;;;;4972533;28;20600;-75
2021/04/27 07:56:09;;;;;;;2.17;1.85;;;6.50;99.90;;;;;;4981717;28;20187;-75
2021/04/27 07:58:35;;;;;;;1.63;1.52;;;6.40;99.90;;;;;;4988065;28;20234;-72
2021/04/27 08:01:03;;;;;;;2.17;1.27;;;6.40;99.90;;;;;;4990418;28;20218;-74
2021/04/27 08:03:29;;;;;;;1.27;1.23;;;6.50;99.90;;;;;;4991975;28;20170;-74
2021/04/27 08:05:55;;;;;;;0.52;0.52;;;6.60;99.90;;;;;;4990652;28;20168;-74
2021/04/27 08:08:21;;;;;;;1.35;1.35;;;6.80;99.90;;;;;;4992002;28;20590;-72
2021/04/27 08:10:47;;;;;;;1.48;1.42;;;6.80;99.90;;;;;;4991708;28;20195;-73
2021/04/27 08:13:13;;;;;;;2.65;1.33;;;6.90;99.90;;;;;;4991630;28;20155;-73
2021/04/27 08:15:40;;;;;;;1.58;1.05;;;6.90;99.90;;;;;;4991514;28;20739;-73
2021/04/27 08:18:08;;;;;;;0.68;0.68;;;6.90;99.90;;;;;;4991430;28;20201;-73
2021/04/27 08:20:34;;;;;;;0.77;0.77;;;6.90;99.90;;;;;;4991315;28;20227;-73
2021/04/27 08:23:02;;;;;;;0.45;0.45;;;6.80;99.90;;;;;;4991532;28;20171;-73
2021/04/27 08:25:28;;;;;;;0.30;0.30;;;6.90;99.90;;;;;;4991627;28;20183;-73
2021/04/27 08:27:54;;;;;;;0.85;0.85;;;6.90;99.90;;;;;;4991754;28;20156;-73
2021/04/27 08:30:23;;;;;;;1.70;1.60;;;6.90;99.90;;;;;;4991218;28;20187;-76
2021/04/27 08:32:52;;;;;;;3.80;2.53;;;7.00;99.90;;;;;;4991399;28;20175;-75
2021/04/27 08:35:19;;;;;;;0.82;0.82;;;7.10;99.90;;;;;;4989994;28;20206;-75
2021/04/27 08:37:47;;;;;;;2.38;2.22;;;7.10;99.90;;;;;;4991188;28;20163;-75
2021/04/27 08:40:15;;;;;;;0.93;0.93;;;7.10;99.90;;;;;;4989706;28;20211;-74
2021/04/27 08:42:46;;;;;;;0.93;0.90;;;6.90;99.90;;;;;;4991110;28;20694;-76
2021/04/27 08:45:12;;;;;;;0.32;0.32;;;6.80;99.90;;;;;;4989912;28;20186;-74
2021/04/27 08:47:39;;;;;;;3.60;1.88;;;6.90;99.90;;;;;;4990081;28;20171;-73
2021/04/27 08:50:08;;;;;;;0.85;0.85;;;6.80;99.90;;;;;;4990026;28;20210;-74
2021/04/27 08:52:34;;;;;;;2.95;2.78;;;6.80;99.90;;;;;;4989582;28;20186;-74
2021/04/27 08:55:00;;;;;;;2.00;1.70;;;6.80;99.90;;;;;;4990933;28;20198;-74
2021/04/27 08:57:26;;;;;;;1.15;1.13;;;6.80;99.90;;;;;;4986592;28;20521;-74
2021/04/27 08:59:52;;;;;;;0.75;0.75;;;6.80;99.90;;;;;;4971398;28;20203;-74
2021/04/27 09:02:29;;;;;;;2.72;1.67;;;6.60;99.90;;;;;;4971573;28;20167;-74
2021/04/27 09:04:55;;;;;;;0.73;0.73;;;6.60;99.90;;;;;;4971530;28;20164;-74
2021/04/27 09:07:22;;;;;;;0.85;0.85;;;6.60;99.90;;;;;;4971474;28;20187;-74
2021/04/27 09:09:59;;;;;;;1.45;1.35;;;6.60;99.90;;;;;;4970372;28;20202;-75
2021/04/27 09:12:32;;;;;;;0.45;0.45;;;6.70;99.90;;;;;;4971907;28;20168;-74
2021/04/27 09:14:59;;;;;;;2.08;1.95;;;6.70;99.90;;;;;;4972134;28;20603;-72
2021/04/27 09:17:28;;;;;;;0.35;0.35;;;6.70;99.90;;;;;;4970023;29;20192;-71
2021/04/27 09:19:55;;;;;;;0.38;0.38;;;6.70;99.90;;;;;;4970739;28;20199;-72
2021/04/27 09:22:25;;;;;;;0.10;0.10;;;6.70;99.90;;;;;;4971261;28;20189;-72
2021/04/27 09:24:51;;;;;;;0.82;0.82;;;6.70;99.90;;;;;;4971149;28;20183;-73
2021/04/27 09:27:42;;;;;;;2.90;2.42;;;6.60;99.90;;;;;;4969431;29;20239;-73
2021/04/27 09:30:26;;;;;;;1.00;0.98;;;6.60;99.90;;;;;;4970873;28;20160;-73
2021/04/27 09:32:56;;;;;;;0.10;0.10;;;6.70;99.90;;;;;;4970941;28;20226;-72
2021/04/27 09:35:42;;;;;;;1.30;1.20;;;6.80;99.90;;;;;;4970974;28;20161;-73
2021/04/27 09:38:08;;;;;;;0.85;0.85;;;6.80;99.90;;;;;;4970748;28;20658;-74
2021/04/27 09:40:45;;;;;;;0.38;0.38;;;6.80;99.90;;;;;;4969781;29;20172;-73
2021/04/27 09:43:11;;;;;;;0.20;0.20;;;6.90;99.90;;;;;;4970751;28;20192;-73
2021/04/27 09:45:47;;;;;;;1.38;1.38;;;6.90;99.90;;;;;;4970811;28;20302;-73
2021/04/27 09:48:14;;;;;;;1.20;1.20;;;6.90;99.90;;;;;;4969148;28;20183;-73
2021/04/27 09:50:41;;;;;;;0.22;0.22;;;6.90;99.90;;;;;;4970675;28;20184;-73
2021/04/27 09:53:07;;;;;;;1.30;1.30;;;6.90;99.90;;;;;;4970578;28;20192;-75
2021/04/27 09:55:34;;;;;;;1.25;1.25;;;6.90;99.90;;;;;;4983498;28;20210;-73
2021/04/27 09:58:02;;;;;;;1.50;1.45;;;6.90;99.90;;;;;;4981689;28;20175;-73
2021/04/27 10:00:39;;;;;;;0.65;0.65;;;6.90;99.90;;;;;;4968866;29;20172;-73
2021/04/27 10:03:10;;;;;;;0.43;0.43;;;6.90;99.90;;;;;;4968885;29;20195;-73
2021/04/27 10:05:42;;;;;;;0.55;0.55;;;6.90;99.90;;;;;;4970310;28;20165;-73
2021/04/27 10:08:11;;;;;;;0.70;0.70;;;6.90;99.90;;;;;;4970651;28;20163;-73
2021/04/27 10:10:37;;;;;;;3.22;1.63;;;6.90;99.90;;;;;;4970106;28;20176;-73
2021/04/27 10:13:06;;;;;;;1.77;1.67;;;7.00;99.90;;;;;;4970217;28;20192;-73
2021/04/27 10:15:32;;;;;;;1.38;1.23;;;7.00;99.90;;;;;;4968825;28;20239;-74
2021/04/27 10:18:00;;;;;;;0.50;0.50;;;7.00;99.90;;;;;;4970068;28;20160;-73
2021/04/27 10:20:27;;;;;;;0.15;0.15;;;7.00;99.90;;;;;;4970375;28;20248;-72
2021/04/27 10:22:54;;;;;;;0.40;0.40;;;6.80;99.90;;;;;;4968717;29;20235;-72
2021/04/27 10:25:23;;;;;;;1.08;1.08;;;6.90;99.90;;;;;;4970217;28;20550;-72
2021/04/27 10:28:03;;;;;;;0.68;0.68;;;6.90;99.90;;;;;;4968673;29;20180;-72
2021/04/27 10:30:40;;;;;;;0.65;0.65;;;6.90;99.90;;;;;;4969990;28;20166;-73
2021/04/27 10:33:06;;;;;;;1.00;0.60;;;6.90;99.90;;;;;;4968578;28;20196;-74
2021/04/27 10:35:55;;;;;;;3.63;2.65;;;6.90;99.90;;;;;;4970103;28;20247;-73
2021/04/27 10:38:21;;;;;;;0.20;0.20;;;7.00;99.90;;;;;;4968293;29;20211;-73
2021/04/27 10:41:03;;;;;;;0.22;0.22;;;7.00;99.90;;;;;;4969985;28;20156;-74
2021/04/27 10:43:37;;;;;;;3.47;1.42;;;7.00;99.90;;;;;;4969886;28;20195;-73
2021/04/27 10:46:10;;;;;;;0.30;0.30;;;7.00;99.90;;;;;;4968591;29;20202;-74
2021/04/27 10:48:44;;;;;;;0.65;0.65;;;7.00;99.90;;;;;;4979911;28;20194;-73
2021/04/27 10:51:20;;;;;;;0.43;0.43;;;7.00;99.90;;;;;;4989053;28;20190;-73
2021/04/27 10:54:10;;;;;;;1.23;1.23;;;7.10;99.90;;;;;;4975441;28;20231;-73
2021/04/27 10:56:44;;;;;;;0.70;0.70;;;7.20;99.90;;;;;;4969406;28;20164;-70
2021/04/27 10:59:17;;;;;;;0.65;0.65;;;7.20;99.90;;;;;;4984924;28;20195;-69
2021/04/27 11:01:45;;;;;;;1.17;1.17;;;7.20;99.90;;;;;;4987469;28;20187;-70
2021/04/27 11:04:26;;;;;;;0.70;0.70;;;7.30;99.90;;;;;;4973058;28;20200;-70
2021/04/27 11:07:11;;;;;;;0.35;0.35;;;7.40;99.90;;;;;;4969477;28;20171;-70
2021/04/27 11:09:38;;;;;;;0.60;0.60;;;7.50;99.90;;;;;;4967468;29;20203;-69
2021/04/27 11:12:29;;;;;;;0.88;0.88;;;7.50;99.90;;;;;;4969538;28;20168;-69
2021/04/27 11:15:27;;;;;;;0.28;0.28;;;7.60;99.90;;;;;;4967793;29;20570;-68
2021/04/27 11:18:02;;;;;;;2.83;1.95;;;7.50;99.90;;;;;;4947618;29;20215;-69
2021/04/27 11:20:52;;;;;;;0.20;0.20;;;7.20;99.90;;;;;;4947843;29;20247;-69
2021/04/27 11:23:34;;;;;;;0.55;0.40;;;7.10;99.90;;;;;;4931378;29;20197;-70
2021/04/27 11:26:01;;;;;;;1.15;1.15;;;7.20;99.90;;;;;;4948057;29;20240;-69
2021/04/27 11:28:54;;;;;;;1.00;0.90;;;7.00;99.90;;;;;;4947729;29;20192;-70
2021/04/27 11:31:21;;;;;;;2.28;2.17;;;6.90;99.90;;;;;;4947818;29;20251;-70
2021/04/27 11:34:00;;;;;;;0.63;0.63;;;6.90;99.90;;;;;;4947452;29;20209;-70
2021/04/27 11:36:37;;;;;;;1.25;0.70;;;6.90;99.90;;;;;;4948122;29;20169;-70
2021/04/27 11:39:18;;;;;;;1.67;1.10;;;7.10;99.90;;;;;;4963016;29;20227;-70
2021/04/27 11:41:48;;;;;;;0.75;0.75;;;7.20;99.90;;;;;;4950807;29;20682;-70
2021/04/27 11:44:16;;;;;;;0.55;0.55;;;7.20;99.90;;;;;;4964801;28;20266;-68
2021/04/27 11:47:22;;;;;;;0.52;0.52;;;7.30;99.90;;;;;;4985601;28;20179;-68
2021/04/27 11:49:56;;;;;;;1.27;1.25;;;7.30;99.90;;;;;;4979847;28;20195;-69
2021/04/27 11:52:48;;;;;;;0.25;0.25;;;7.20;99.90;;;;;;4985567;28;20174;-68
2021/04/27 11:55:34;;;;;;;0.93;0.93;;;7.20;99.90;;;;;;4967224;28;20199;-68
2021/04/27 11:58:07;;;;;;;0.82;0.82;;;7.10;99.90;;;;;;4976449;28;20179;-69
2021/04/27 12:00:50;;;;;;;1.27;1.23;;;7.20;99.90;;;;;;4986831;28;20167;-69
2021/04/27 12:03:21;;;;;;;0.63;0.63;;;7.30;99.90;;;;;;4986778;28;20187;-69
2021/04/27 12:05:57;;;;;;;0.85;0.85;;;7.20;99.90;;;;;;4988267;28;20214;-68
2021/04/27 12:08:29;;;;;;;0.75;0.73;;;7.20;99.90;;;;;;4987409;28;20234;-68
2021/04/27 12:11:23;;;;;;;1.35;1.35;;;7.20;99.90;;;;;;4988510;28;20164;-68
2021/04/27 12:13:54;;;;;;;1.20;1.00;;;7.20;99.90;;;;;;4987797;28;20199;-68
2021/04/27 12:16:23;;;;;;;1.02;1.02;;;7.20;99.90;;;;;;4988227;28;20182;-69
2021/04/27 12:18:54;;;;;;;0.73;0.73;;;7.20;99.90;;;;;;4988162;28;20211;-69
2021/04/27 12:21:50;;;;;;;1.17;1.17;;;7.30;99.90;;;;;;4991342;28;20267;-69
2021/04/27 12:24:30;;;;;;;2.00;1.75;;;7.30;99.90;;;;;;4991530;28;20160;-69
2021/04/27 12:27:04;;;;;;;1.27;1.10;;;7.50;99.90;;;;;;4991576;28;20167;-69
2021/04/27 12:29:39;;;;;;;1.38;0.70;;;7.50;99.90;;;;;;4990182;28;20187;-69
2021/04/27 12:32:17;;;;;;;0.32;0.32;;;7.50;99.90;;;;;;4991588;28;20266;-69
2021/04/27 12:34:58;;;;;;;1.40;1.35;;;7.50;99.90;;;;;;4991941;28;20166;-69
2021/04/27 12:37:26;;;;;;;0.90;0.90;;;7.60;99.90;;;;;;4991899;28;20179;-69
2021/04/27 12:39:53;;;;;;;0.55;0.30;;;7.50;99.90;;;;;;4991444;28;20195;-69
2021/04/27 12:42:26;;;;;;;0.65;0.65;;;7.50;99.90;;;;;;4990248;28;20171;-69
2021/04/27 12:44:56;;;;;;;0.75;0.75;;;7.40;99.90;;;;;;4991411;28;20175;-69
2021/04/27 12:47:29;;;;;;;0.15;0.15;;;7.40;99.90;;;;;;4991807;28;20170;-70
2021/04/27 12:50:10;;;;;;;1.85;1.75;;;7.40;99.90;;;;;;4991407;28;20255;-70
2021/04/27 12:52:42;;;;;;;0.75;0.75;;;7.40;99.90;;;;;;4986701;28;20266;-69
2021/04/27 12:55:17;;;;;;;1.77;1.33;;;7.40;99.90;;;;;;4981883;28;20195;-69
2021/04/27 12:57:43;;;;;;;0.98;0.77;;;7.40;99.90;;;;;;4985393;28;20172;-69
2021/04/27 13:00:17;;;;;;;1.20;1.20;;;7.30;99.90;;;;;;4971972;28;20214;-69
2021/04/27 13:02:44;;;;;;;0.38;0.38;;;7.30;99.90;;;;;;4987192;28;20189;-69
2021/04/27 13:05:11;;;;;;;0.22;0.22;;;7.30;99.90;;;;;;4991838;28;20167;-68
2021/04/27 13:07:39;;;;;;;0.73;0.73;;;7.30;99.90;;;;;;4989875;28;20187;-69